Terminal Aerodrome Forecast
Issued by NWS Louisville, KY

Home | Current Version | Previous Version | Text Only | Print | Product List | Glossary On
Versions: 1 2 3 4 5 6 7 8 9 10 11 12 13 14 15 16 17 18
000
FTUS43 KLMK 061100
TAFSDF
TAF
KSDF 061139Z 0612/0718 VRB03KT 5SM BR BKN200
     FM061300 22007KT P6SM SCT050
     FM070200 19005KT P6SM SCT250
     FM071300 22011KT P6SM BKN040=

USA.gov is the U.S. government's official web portal to all federal, state and local government web resources and services.